North Judson, IN (46366)

12:57 PM CDT on August 22, 2017 (GMT -0500)
West Side of North Judson | | Change Station

Elev 716 ft 41.22 °N, 86.81 °W | Updated 10 seconds ago

Overcast
Overcast
80.0 °F
Feels Like 83 °F
N
3.0
Wind Variable Wind from North

Today
High -- | Low -- °F
--% Chance of Precip.
Yesterday
High -- | Low -- °F
Precip. -- in
Pressure 29.89 in
Visibility 10.0 miles
Clouds Scattered Clouds 3100 ft
Scattered Clouds 3700 ft
Mostly Cloudy 4400 ft
Heat Index 83 °F
Dew Point 68 °F
Humidity 68%
Rainfall Not available.
Snow Depth Not available.
6:03 AM 7:35 PM
New Moon, 1% visible
METAR KOXI 221735Z AUTO 25011G14KT 10SM SCT031 SCT037 BKN044 23/19 A2989 RMK AO1
Pressure 29.89 in
Visibility 10.0 miles
Clouds Scattered Clouds 3100 ft
Scattered Clouds 3700 ft
Mostly Cloudy 4400 ft
Heat Index 83 °F
Dew Point 68 °F
Humidity 68%
Rainfall Not available.
Snow Depth Not available.
6:03 AM 7:35 PM
New Moon, 1% visible
METAR KOXI 221735Z AUTO 25011G14KT 10SM SCT031 SCT037 BKN044 23/19 A2989 RMK AO1

Get Severe Weather Alerts

Thanks for signing up!

Be on the lookout for a verification email in your inbox.

You'll start receiving the daily forecast at 6 AM.

×

10-Day Weather Forecast

Almanac

Astronomy

Aug. 22, 2017 Rise Set
Actual Time
Civil Twilight
Nautical Twilight
Astronomical Twilight
Moon
Length of Visible Light
Length of Day
Tomorrow will be .
, % of the Moon is Illuminated

Today's Extremes

State Highs State Lows

Community

WunderPhotos

Category 6

Welcome to Category 6. This is the collective home for Weather Underground's featured writeups by Dr. Jeff Masters (right), Bob Henson (left), Chris Burt, and other regular contributors.

Nearby

Air Quality

  Air Quality AQ Index Pollutant
Not available.

Snow Depth

Station Depth Elevation

Earthquake Activity

City Distance Mag. Time & Date
Minimum magnitude displayed is 2.5.

Coastal Water Temperatures

Place Temperature

Stations

Nearby Weather Stations

Station Location Temp. Windchill Dew Point Humidity Wind Precip. Elev Updated Type
                   

Watches & Warnings

There are currently no watches in effect.